createdAt,value
2024-03-09T00:00:05.924Z,1.03
2024-03-09T00:01:39.462Z,1.03
2024-03-09T00:03:12.050Z,0.96
2024-03-09T00:04:45.424Z,0.94
2024-03-09T00:06:17.697Z,0.92
2024-03-09T00:07:49.906Z,0.94
2024-03-09T00:09:21.958Z,0.94
2024-03-09T00:10:53.981Z,0.95
2024-03-09T00:12:26.040Z,0.97
2024-03-09T00:13:58.094Z,0.95
2024-03-09T00:15:30.370Z,0.94
2024-03-09T00:17:02.833Z,0.91
2024-03-09T00:18:41.435Z,0.91
2024-03-09T00:20:21.148Z,0.93
2024-03-09T00:21:53.282Z,0.96
2024-03-09T00:23:28.397Z,0.97
2024-03-09T00:25:04.414Z,0.98
2024-03-09T00:26:36.570Z,1.01
2024-03-09T00:28:08.746Z,1.01
2024-03-09T00:29:40.904Z,0.97
2024-03-09T00:31:13.590Z,0.90
2024-03-09T00:32:46.582Z,0.89
2024-03-09T00:34:21.297Z,0.88
2024-03-09T00:35:56.021Z,0.90
2024-03-09T00:37:28.067Z,0.91
2024-03-09T00:39:00.103Z,0.92
2024-03-09T00:40:32.361Z,0.94
2024-03-09T00:43:45.864Z,0.97
2024-03-09T00:45:20.341Z,0.98
2024-03-09T00:46:52.485Z,1.00
2024-03-09T00:48:24.564Z,1.03
2024-03-09T00:49:57.649Z,1.06
2024-03-09T00:51:32.455Z,1.03
2024-03-09T00:53:04.933Z,0.98
2024-03-09T00:54:38.659Z,0.94
2024-03-09T00:56:10.814Z,0.89
2024-03-09T00:57:43.539Z,0.86
2024-03-09T00:59:17.447Z,0.84
2024-03-09T01:00:50.141Z,0.82
2024-03-09T01:02:22.589Z,0.84
2024-03-09T01:03:57.112Z,0.86
2024-03-09T01:05:29.213Z,0.86
2024-03-09T01:07:01.264Z,0.86
2024-03-09T01:08:35.266Z,0.89
2024-03-09T01:10:08.022Z,0.92
2024-03-09T01:11:40.044Z,0.87
2024-03-09T01:13:17.083Z,0.85
2024-03-09T01:14:49.826Z,0.88
2024-03-09T01:16:21.807Z,0.84
2024-03-09T01:19:26.441Z,0.68
2024-03-09T01:20:58.542Z,0.65
2024-03-09T01:22:30.556Z,0.63
2024-03-09T01:24:03.183Z,0.62
2024-03-09T01:25:35.206Z,0.60
2024-03-09T01:27:07.459Z,0.56
2024-03-09T01:28:42.749Z,0.50
2024-03-09T01:30:16.660Z,0.48
2024-03-09T01:31:48.785Z,0.53
2024-03-09T01:33:20.891Z,0.55
2024-03-09T01:34:53.033Z,0.60
2024-03-09T01:36:26.102Z,0.64
2024-03-09T01:37:59.790Z,0.67
2024-03-09T01:39:32.075Z,0.70
2024-03-09T01:41:04.263Z,0.73
2024-03-09T01:42:36.260Z,0.73
2024-03-09T01:44:08.697Z,0.77
2024-03-09T01:45:40.683Z,0.78
2024-03-09T01:47:13.608Z,0.77
2024-03-09T01:48:46.183Z,0.77
2024-03-09T01:50:18.196Z,0.72
2024-03-09T01:53:27.194Z,0.66
2024-03-09T01:54:59.273Z,0.64
2024-03-09T01:56:31.281Z,0.59
2024-03-09T01:58:04.553Z,0.55
2024-03-09T01:59:38.875Z,0.55
2024-03-09T02:01:27.886Z,0.51
2024-03-09T02:02:59.962Z,0.50
2024-03-09T02:04:32.373Z,0.49
2024-03-09T02:06:07.120Z,0.48
2024-03-09T02:07:39.629Z,0.49
2024-03-09T02:09:11.637Z,0.46
2024-03-09T02:10:43.747Z,0.45
2024-03-09T02:12:18.699Z,0.42
2024-03-09T02:13:52.385Z,0.38
2024-03-09T02:15:31.263Z,0.35
2024-03-09T02:17:09.467Z,0.40
2024-03-09T02:18:41.918Z,0.43
2024-03-09T02:20:15.886Z,0.38
2024-03-09T02:21:48.090Z,0.35
2024-03-09T02:23:20.985Z,0.32
2024-03-09T02:24:57.591Z,0.30
2024-03-09T02:26:30.464Z,0.29
2024-03-09T02:28:03.802Z,0.25
2024-03-09T02:29:39.708Z,0.23
2024-03-09T02:31:13.628Z,0.22
2024-03-09T02:32:45.883Z,0.20
2024-03-09T02:34:17.902Z,0.18
2024-03-09T02:35:50.042Z,0.17
2024-03-09T02:37:22.124Z,0.15
2024-03-09T02:38:54.244Z,0.15
2024-03-09T02:40:26.379Z,0.13
2024-03-09T02:42:00.390Z,0.12
2024-03-09T02:43:32.717Z,0.11
2024-03-09T02:45:04.906Z,0.14
2024-03-09T02:46:37.928Z,0.12
2024-03-09T02:48:09.986Z,0.11
2024-03-09T02:49:42.136Z,0.08
2024-03-09T02:51:14.302Z,0.04
2024-03-09T02:52:47.454Z,0.00
2024-03-09T02:54:19.542Z,0.01
2024-03-09T02:55:51.588Z,0.06
2024-03-09T02:57:24.790Z,0.12
2024-03-09T02:58:57.016Z,0.11
2024-03-09T03:00:29.261Z,0.06
2024-03-09T03:02:05.675Z,0.05
2024-03-09T03:03:47.865Z,0.09
2024-03-09T03:05:19.856Z,0.09
2024-03-09T03:06:52.090Z,0.08
2024-03-09T03:08:25.103Z,0.10
2024-03-09T03:09:59.396Z,0.10
2024-03-09T03:11:33.757Z,0.11
2024-03-09T03:13:06.391Z,0.11
2024-03-09T03:14:41.153Z,0.03
2024-03-09T03:16:27.563Z,-0.04
2024-03-09T03:17:59.681Z,-0.12
2024-03-09T03:19:31.794Z,-0.10
2024-03-09T03:21:05.097Z,-0.07
2024-03-09T03:22:39.469Z,-0.03
2024-03-09T03:24:11.649Z,-0.03
2024-03-09T03:25:46.086Z,0.03
2024-03-09T03:27:20.780Z,0.02
2024-03-09T03:28:53.865Z,0.00
2024-03-09T03:30:26.789Z,0.02
2024-03-09T03:32:00.244Z,0.02
2024-03-09T03:33:33.780Z,-0.01
2024-03-09T03:35:08.999Z,-0.04
2024-03-09T03:36:41.310Z,-0.02
2024-03-09T03:38:13.603Z,-0.07
2024-03-09T03:39:46.495Z,-0.10
2024-03-09T03:41:20.229Z,-0.08
2024-03-09T03:42:52.930Z,-0.07
2024-03-09T03:44:26.887Z,-0.09
2024-03-09T03:45:58.867Z,-0.09
2024-03-09T03:47:30.982Z,-0.11
2024-03-09T03:49:03.114Z,-0.13
2024-03-09T03:50:35.185Z,-0.11
2024-03-09T03:52:07.145Z,-0.09
2024-03-09T03:53:39.817Z,-0.08
2024-03-09T03:55:14.624Z,-0.12
2024-03-09T03:56:46.736Z,-0.15
2024-03-09T03:58:21.967Z,-0.15
2024-03-09T03:59:53.932Z,-0.16
2024-03-09T04:01:26.094Z,-0.16
2024-03-09T04:02:58.146Z,-0.12
2024-03-09T04:04:30.270Z,-0.13
2024-03-09T04:06:04.007Z,-0.14
2024-03-09T04:07:36.502Z,-0.19
2024-03-09T04:09:14.877Z,-0.25
2024-03-09T04:10:50.630Z,-0.26
2024-03-09T04:12:22.784Z,-0.27
2024-03-09T04:13:56.343Z,-0.23
2024-03-09T04:15:28.559Z,-0.19
2024-03-09T04:17:00.765Z,-0.18
2024-03-09T04:18:34.754Z,-0.16
2024-03-09T04:20:07.134Z,-0.19
2024-03-09T04:21:39.771Z,-0.16
2024-03-09T04:23:17.893Z,-0.18
2024-03-09T04:24:50.327Z,-0.13
2024-03-09T04:26:22.992Z,-0.10
2024-03-09T04:27:56.989Z,-0.09
2024-03-09T04:29:30.499Z,-0.10
2024-03-09T04:31:02.508Z,-0.16
2024-03-09T04:32:34.560Z,-0.18
2024-03-09T04:34:12.619Z,-0.19
2024-03-09T04:35:46.459Z,-0.15
2024-03-09T04:37:26.963Z,-0.12
2024-03-09T04:39:02.725Z,-0.11
2024-03-09T04:40:35.626Z,-0.08
2024-03-09T04:42:08.867Z,-0.06
2024-03-09T04:43:41.797Z,-0.04
2024-03-09T04:45:31.739Z,-0.03
2024-03-09T04:47:05.557Z,-0.02
2024-03-09T04:48:37.573Z,0.00
2024-03-09T04:50:09.898Z,-0.01
2024-03-09T04:51:41.958Z,-0.01
2024-03-09T04:53:13.968Z,0.04
2024-03-09T04:54:45.984Z,0.04
2024-03-09T04:56:18.260Z,0.05
2024-03-09T04:57:51.672Z,0.07
2024-03-09T04:59:26.235Z,0.08
2024-03-09T05:00:58.358Z,0.12
2024-03-09T05:02:31.279Z,0.03
2024-03-09T05:04:03.355Z,-0.02
2024-03-09T05:05:36.326Z,-0.07
2024-03-09T05:07:08.850Z,-0.11
2024-03-09T05:08:41.156Z,-0.12
2024-03-09T05:10:17.545Z,-0.10
2024-03-09T05:11:51.684Z,-0.02
2024-03-09T05:13:23.954Z,-0.03
2024-03-09T05:14:56.188Z,-0.02
2024-03-09T05:16:29.966Z,0.01
2024-03-09T05:18:13.248Z,0.02
2024-03-09T05:19:45.601Z,0.04
2024-03-09T05:21:18.377Z,0.05
2024-03-09T05:22:59.963Z,0.07
2024-03-09T05:24:33.391Z,0.03
2024-03-09T05:27:45.844Z,0.03
2024-03-09T05:29:17.961Z,0.05
2024-03-09T05:30:50.024Z,0.05
2024-03-09T05:32:24.064Z,0.02
2024-03-09T05:33:56.164Z,0.04
2024-03-09T05:35:29.916Z,0.03
2024-03-09T05:37:07.845Z,-0.02
2024-03-09T05:38:40.146Z,0.06
2024-03-09T05:40:14.836Z,0.10
2024-03-09T05:41:47.001Z,0.10
2024-03-09T05:43:19.107Z,0.13
2024-03-09T05:44:51.193Z,0.15
2024-03-09T05:46:23.538Z,0.20
2024-03-09T05:47:56.324Z,0.26
2024-03-09T05:49:29.059Z,0.31
2024-03-09T05:51:01.106Z,0.37
2024-03-09T05:52:33.492Z,0.40
2024-03-09T05:54:05.977Z,0.43
2024-03-09T05:55:38.157Z,0.44
2024-03-09T05:57:10.212Z,0.52
2024-03-09T05:58:42.431Z,0.52
2024-03-09T06:01:47.318Z,0.55
2024-03-09T06:03:19.606Z,0.62
2024-03-09T06:04:54.029Z,0.65
2024-03-09T06:06:26.508Z,0.67
2024-03-09T06:07:59.402Z,0.71
2024-03-09T06:09:31.654Z,0.73
2024-03-09T06:11:04.621Z,0.75
2024-03-09T06:12:37.043Z,0.77
2024-03-09T06:14:09.201Z,0.80
2024-03-09T06:15:43.035Z,0.84
2024-03-09T06:17:16.860Z,0.86
2024-03-09T06:18:49.696Z,0.90
2024-03-09T06:20:22.016Z,0.93
2024-03-09T06:21:54.545Z,0.96
2024-03-09T06:23:26.820Z,0.96
2024-03-09T06:24:58.855Z,0.97
2024-03-09T06:26:31.120Z,1.03
2024-03-09T06:28:06.940Z,1.07
2024-03-09T06:29:39.443Z,1.09
2024-03-09T06:31:11.795Z,1.12
2024-03-09T06:32:45.563Z,1.16
2024-03-09T06:34:17.672Z,1.23
2024-03-09T06:37:29.103Z,1.29
2024-03-09T06:39:01.545Z,1.33
2024-03-09T06:40:34.930Z,1.33
2024-03-09T06:42:12.561Z,1.37
2024-03-09T06:43:44.670Z,1.45
2024-03-09T06:45:16.760Z,1.49
2024-03-09T06:46:52.930Z,1.50
2024-03-09T06:48:25.548Z,1.49
2024-03-09T06:49:57.850Z,1.51
2024-03-09T06:51:30.088Z,1.55
2024-03-09T06:53:02.756Z,1.58
2024-03-09T06:54:35.457Z,1.58
2024-03-09T06:56:09.470Z,1.63
2024-03-09T06:57:42.354Z,1.65
2024-03-09T06:59:14.582Z,1.70
2024-03-09T07:00:46.711Z,1.74
2024-03-09T07:02:19.428Z,1.77
2024-03-09T07:03:51.605Z,1.80
2024-03-09T07:05:23.694Z,1.84
2024-03-09T07:06:57.768Z,1.88
2024-03-09T07:08:29.804Z,1.92
2024-03-09T07:10:01.932Z,1.94
2024-03-09T07:11:33.920Z,1.98
2024-03-09T07:13:10.882Z,2.02
2024-03-09T07:14:44.596Z,2.05
2024-03-09T07:16:17.498Z,2.09
2024-03-09T07:17:50.683Z,2.17
2024-03-09T07:19:22.783Z,2.25
2024-03-09T07:20:54.953Z,2.32
2024-03-09T07:22:27.558Z,2.39
2024-03-09T07:24:00.478Z,2.46
2024-03-09T07:25:32.894Z,2.53
2024-03-09T07:27:05.147Z,2.61
2024-03-09T07:28:37.307Z,2.64
2024-03-09T07:30:11.101Z,2.68
2024-03-09T07:31:43.173Z,2.70
2024-03-09T07:33:15.245Z,2.75
2024-03-09T07:34:49.716Z,2.76
2024-03-09T07:36:22.244Z,2.78
2024-03-09T07:38:01.123Z,2.83
2024-03-09T07:39:39.494Z,2.90
2024-03-09T07:41:11.785Z,2.94
2024-03-09T07:42:44.211Z,2.97
2024-03-09T07:44:16.346Z,3.04
2024-03-09T07:45:48.493Z,3.13
2024-03-09T07:47:20.588Z,3.14
2024-03-09T07:48:52.595Z,3.20
2024-03-09T07:50:24.979Z,3.27
2024-03-09T07:51:57.842Z,3.38
2024-03-09T07:53:30.054Z,3.49
2024-03-09T07:55:02.259Z,3.62
2024-03-09T07:56:34.461Z,3.71
2024-03-09T07:58:14.467Z,3.82
2024-03-09T07:59:54.739Z,3.95
2024-03-09T08:01:26.905Z,4.02
2024-03-09T08:03:01.425Z,4.09
2024-03-09T08:04:33.665Z,4.11
2024-03-09T08:06:05.919Z,4.15
2024-03-09T08:07:37.980Z,4.19
2024-03-09T08:09:15.110Z,4.26
2024-03-09T08:10:54.517Z,4.30
2024-03-09T08:12:26.782Z,4.42
2024-03-09T08:13:58.967Z,4.50
2024-03-09T08:15:31.232Z,4.57
2024-03-09T08:17:04.127Z,4.66
2024-03-09T08:18:38.005Z,4.75
2024-03-09T08:20:10.694Z,4.82
2024-03-09T08:21:43.447Z,4.93
2024-03-09T08:23:15.503Z,5.03
2024-03-09T08:24:47.577Z,5.15
2024-03-09T08:26:19.953Z,5.21
2024-03-09T08:27:53.243Z,5.26
2024-03-09T08:29:25.242Z,5.36
2024-03-09T08:30:58.783Z,5.47
2024-03-09T08:32:31.450Z,5.55
2024-03-09T08:52:26.574Z,6.12
2024-03-09T08:53:59.691Z,6.20
2024-03-09T08:55:34.795Z,6.28
2024-03-09T08:57:08.770Z,6.32
2024-03-09T08:58:42.860Z,6.38
2024-03-09T09:00:17.119Z,6.40
2024-03-09T09:01:49.947Z,6.43
2024-03-09T09:03:24.367Z,6.46
2024-03-09T09:04:56.541Z,6.49
2024-03-09T09:06:28.680Z,6.56
2024-03-09T09:08:01.380Z,6.62
2024-03-09T09:09:33.590Z,6.67
2024-03-09T09:11:06.313Z,6.65
2024-03-09T09:12:39.717Z,6.55
2024-03-09T09:14:12.395Z,6.59
2024-03-09T09:15:48.204Z,6.68
2024-03-09T09:17:20.722Z,6.72
2024-03-09T09:18:53.450Z,6.75
2024-03-09T09:20:26.115Z,6.79
2024-03-09T09:21:58.417Z,6.85
2024-03-09T09:23:30.757Z,6.89
2024-03-09T09:25:04.166Z,6.97
2024-03-09T09:26:36.316Z,7.05
2024-03-09T09:28:09.686Z,7.12
2024-03-09T09:29:41.820Z,7.13
2024-03-09T09:31:14.084Z,7.15
2024-03-09T09:32:46.181Z,7.23
2024-03-09T09:34:18.332Z,7.25
2024-03-09T09:35:53.485Z,7.27
2024-03-09T09:37:25.705Z,7.28
2024-03-09T09:39:00.642Z,7.33
2024-03-09T09:40:35.667Z,7.29
2024-03-09T09:42:08.008Z,7.37
2024-03-09T09:43:40.387Z,7.43
2024-03-09T09:45:19.426Z,7.46
2024-03-09T09:46:53.999Z,7.52
2024-03-09T09:48:26.695Z,7.63
2024-03-09T09:49:59.012Z,7.73
2024-03-09T09:51:31.236Z,7.87
2024-03-09T09:53:04.452Z,7.91
2024-03-09T09:54:40.471Z,8.01
2024-03-09T09:56:12.647Z,8.09
2024-03-09T09:57:47.728Z,8.22
2024-03-09T09:59:20.612Z,8.27
2024-03-09T10:00:54.799Z,8.36
2024-03-09T10:02:26.992Z,8.39
2024-03-09T10:03:59.477Z,8.41
2024-03-09T10:05:35.653Z,8.45
2024-03-09T10:07:09.524Z,8.50
2024-03-09T10:08:51.080Z,8.56
2024-03-09T10:10:23.284Z,8.65
2024-03-09T10:11:55.979Z,8.65
2024-03-09T10:13:29.545Z,8.74
2024-03-09T10:15:12.835Z,8.85
2024-03-09T10:16:45.101Z,8.93
2024-03-09T10:18:21.506Z,9.00
2024-03-09T10:19:57.243Z,9.04
2024-03-09T10:21:37.423Z,9.05
2024-03-09T10:23:13.581Z,8.97
2024-03-09T10:24:52.444Z,9.02
2024-03-09T10:26:26.066Z,8.85
2024-03-09T10:28:01.180Z,8.98
2024-03-09T10:29:33.304Z,8.99
2024-03-09T10:31:06.671Z,9.05
2024-03-09T10:32:43.549Z,9.12
2024-03-09T10:34:15.812Z,9.16
2024-03-09T10:35:49.902Z,9.21
2024-03-09T10:37:24.787Z,9.16
2024-03-09T10:38:57.025Z,9.24
2024-03-09T10:40:29.137Z,9.29
2024-03-09T10:42:01.742Z,9.38
2024-03-09T10:43:33.827Z,9.42
2024-03-09T10:45:13.510Z,9.56
2024-03-09T10:46:47.536Z,9.62
2024-03-09T10:48:19.885Z,9.56
2024-03-09T10:49:52.036Z,9.61
2024-03-09T10:51:30.324Z,9.61
2024-03-09T10:53:05.201Z,9.67
2024-03-09T10:54:46.685Z,9.65
2024-03-09T10:56:19.826Z,9.71
2024-03-09T10:57:54.273Z,9.82
2024-03-09T10:59:27.128Z,9.89
2024-03-09T11:00:59.333Z,9.92
2024-03-09T11:02:31.658Z,10.03
2024-03-09T11:05:38.737Z,10.23
2024-03-09T11:07:10.823Z,10.29
2024-03-09T11:08:45.179Z,10.30
2024-03-09T11:10:17.306Z,10.37
2024-03-09T11:11:49.666Z,10.41
2024-03-09T11:13:21.919Z,10.39
2024-03-09T11:14:54.273Z,10.35
2024-03-09T11:16:26.526Z,10.45
2024-03-09T11:17:58.873Z,10.51
2024-03-09T11:19:31.549Z,10.50
2024-03-09T11:21:04.314Z,10.52
2024-03-09T11:22:39.539Z,10.53
2024-03-09T11:24:14.726Z,10.50
2024-03-09T11:25:47.822Z,10.48
2024-03-09T11:27:20.973Z,10.55
2024-03-09T11:28:57.479Z,10.60
2024-03-09T11:30:31.851Z,10.57
2024-03-09T11:32:07.458Z,10.68
2024-03-09T11:33:45.882Z,10.77
2024-03-09T11:35:34.174Z,10.78
2024-03-09T11:37:06.769Z,10.87
2024-03-09T11:38:41.899Z,10.89
2024-03-09T11:40:14.601Z,10.89
2024-03-09T11:41:48.083Z,10.95
2024-03-09T11:43:20.212Z,10.87
2024-03-09T11:44:52.244Z,10.94
2024-03-09T11:46:24.346Z,10.89
2024-03-09T11:47:57.994Z,11.01
2024-03-09T11:49:30.629Z,11.05
2024-03-09T11:51:02.751Z,11.04
2024-03-09T11:52:34.893Z,11.13
2024-03-09T11:54:10.080Z,11.19
2024-03-09T11:55:43.351Z,11.22
2024-03-09T11:57:15.499Z,11.25
2024-03-09T11:58:47.600Z,11.31
2024-03-09T12:00:19.683Z,11.27
2024-03-09T12:02:01.531Z,11.30
2024-03-09T12:03:35.250Z,11.25
2024-03-09T12:05:17.519Z,11.14
2024-03-09T12:06:49.646Z,11.19
2024-03-09T12:10:03.178Z,11.29
2024-03-09T12:11:36.143Z,11.30
2024-03-09T12:13:08.265Z,11.37
2024-03-09T12:14:43.306Z,11.40
2024-03-09T12:16:15.739Z,11.44
2024-03-09T12:17:48.851Z,11.33
2024-03-09T12:19:21.071Z,11.41
2024-03-09T12:20:54.593Z,11.49
2024-03-09T12:22:28.239Z,11.48
2024-03-09T12:24:02.873Z,11.48
2024-03-09T12:25:36.307Z,11.57
2024-03-09T12:27:10.085Z,11.60
2024-03-09T12:28:45.395Z,11.54
2024-03-09T12:30:18.240Z,11.53
2024-03-09T12:31:50.862Z,11.44
2024-03-09T12:33:23.238Z,11.50
2024-03-09T12:34:56.294Z,11.52
2024-03-09T12:36:29.920Z,11.54
2024-03-09T12:38:14.429Z,11.59
2024-03-09T13:34:35.216Z,12.19
2024-03-09T13:36:07.728Z,12.17
2024-03-09T13:37:41.730Z,12.16
2024-03-09T13:39:18.136Z,12.25
2024-03-09T13:40:50.485Z,12.30
2024-03-09T13:42:22.612Z,12.19
2024-03-09T13:43:56.083Z,12.03
2024-03-09T13:45:29.592Z,12.09
2024-03-09T13:48:34.563Z,12.17
2024-03-09T13:50:10.152Z,12.23
2024-03-09T13:51:45.171Z,12.27
2024-03-09T13:53:19.215Z,12.18
2024-03-09T13:54:53.488Z,12.12
2024-03-09T13:56:29.929Z,12.17
2024-03-09T13:58:02.444Z,12.16
2024-03-09T13:59:36.807Z,12.21
2024-03-09T14:01:15.323Z,12.06
2024-03-09T14:02:48.761Z,12.07
2024-03-09T14:04:25.377Z,11.97
2024-03-09T14:05:58.122Z,11.92
2024-03-09T14:07:30.454Z,11.93
2024-03-09T14:09:05.130Z,11.97
2024-03-09T14:10:37.390Z,12.00
2024-03-09T14:12:11.295Z,11.93
2024-03-09T14:13:43.413Z,11.92
2024-03-09T14:15:22.878Z,11.93
2024-03-09T14:16:58.529Z,12.01
2024-03-09T14:18:33.820Z,11.93
2024-03-09T14:20:18.023Z,11.98
2024-03-09T14:21:52.012Z,12.00
2024-03-09T14:23:24.819Z,12.01
2024-03-09T14:24:58.183Z,12.00
2024-03-09T14:26:31.706Z,11.99
2024-03-09T14:28:04.951Z,11.93
2024-03-09T14:29:37.887Z,11.94
2024-03-09T14:31:10.585Z,11.93
2024-03-09T14:32:43.221Z,11.92
2024-03-09T14:34:16.066Z,11.97
2024-03-09T14:35:48.226Z,11.91
2024-03-09T14:37:20.334Z,11.86
2024-03-09T14:38:55.776Z,11.91
2024-03-09T14:40:32.879Z,11.99
2024-03-09T14:42:05.313Z,11.93
2024-03-09T14:43:40.963Z,11.90
2024-03-09T14:45:20.133Z,11.89
2024-03-09T14:46:53.686Z,11.77
2024-03-09T14:48:29.432Z,11.90
2024-03-09T14:50:01.610Z,11.95
2024-03-09T14:53:15.252Z,12.02
2024-03-09T14:54:47.703Z,12.00
2024-03-09T14:56:20.006Z,12.03
2024-03-09T14:57:54.719Z,11.91
2024-03-09T14:59:31.284Z,11.97
2024-03-09T15:01:06.324Z,11.83
2024-03-09T15:02:40.038Z,11.79
2024-03-09T15:04:16.377Z,11.74
2024-03-09T15:05:52.706Z,11.65
2024-03-09T15:07:25.975Z,11.57
2024-03-09T15:09:00.219Z,11.57
2024-03-09T15:10:32.394Z,11.53
2024-03-09T15:12:09.449Z,11.59
2024-03-09T15:13:45.657Z,11.65
2024-03-09T15:15:17.690Z,11.72
2024-03-09T15:16:54.042Z,11.65
2024-03-09T15:18:28.352Z,11.63
2024-03-09T15:20:00.618Z,11.66
2024-03-09T15:21:32.879Z,11.66
2024-03-09T15:23:06.208Z,11.59
2024-03-09T15:24:38.672Z,11.65
2024-03-09T15:27:44.686Z,11.62
2024-03-09T15:29:17.465Z,11.54
2024-03-09T15:30:53.916Z,11.50
2024-03-09T15:32:28.077Z,11.50
2024-03-09T15:34:00.550Z,11.44
2024-03-09T15:35:34.826Z,11.40
2024-03-09T15:37:07.071Z,11.40
2024-03-09T15:38:41.798Z,11.31
2024-03-09T15:40:18.177Z,11.33
2024-03-09T15:41:50.329Z,11.31
2024-03-09T15:43:24.880Z,11.27
2024-03-09T15:44:57.091Z,11.22
2024-03-09T15:46:31.039Z,11.14
2024-03-09T15:48:03.314Z,11.18
2024-03-09T15:49:36.142Z,11.11
2024-03-09T15:51:12.140Z,11.08
2024-03-09T15:52:44.999Z,11.07
2024-03-09T15:54:20.088Z,11.03
2024-03-09T15:55:52.304Z,10.96
2024-03-09T15:57:25.777Z,10.92
2024-03-09T15:58:58.705Z,10.89
2024-03-09T16:00:34.065Z,10.85
2024-03-09T16:02:06.180Z,10.82
2024-03-09T16:03:39.589Z,10.77
2024-03-09T16:05:14.913Z,10.77
2024-03-09T16:06:48.321Z,10.72
2024-03-09T16:08:23.321Z,10.68
2024-03-09T16:09:56.272Z,10.67
2024-03-09T16:11:30.185Z,10.68
2024-03-09T16:13:05.549Z,10.68
2024-03-09T16:14:38.301Z,10.63
2024-03-09T16:16:15.603Z,10.59
2024-03-09T16:17:51.153Z,10.52
2024-03-09T16:19:30.190Z,10.47
2024-03-09T16:21:10.394Z,10.45
2024-03-09T16:22:43.634Z,10.39
2024-03-09T16:24:15.697Z,10.35
2024-03-09T16:25:50.122Z,10.27
2024-03-09T16:27:27.230Z,10.21
2024-03-09T16:29:01.657Z,10.09
2024-03-09T16:30:40.793Z,10.03
2024-03-09T16:32:18.712Z,9.95
2024-03-09T16:33:50.988Z,9.90
2024-03-09T16:35:23.121Z,9.87
2024-03-09T16:36:55.278Z,9.83
2024-03-09T16:38:27.606Z,9.77
2024-03-09T16:40:00.848Z,9.69
2024-03-09T16:41:34.326Z,9.63
2024-03-09T16:43:07.624Z,9.61
2024-03-09T16:44:39.765Z,9.55
2024-03-09T16:46:13.036Z,9.51
2024-03-09T16:47:45.313Z,9.45
2024-03-09T16:49:19.852Z,9.35
2024-03-09T16:50:52.279Z,9.30
2024-03-09T16:52:24.745Z,9.27
2024-03-09T16:53:56.938Z,9.21
2024-03-09T16:55:34.682Z,9.17
2024-03-09T16:57:08.803Z,9.11
2024-03-09T16:58:41.402Z,9.05
2024-03-09T17:00:23.589Z,8.97
2024-03-09T17:01:58.064Z,8.89
2024-03-09T17:03:30.842Z,8.80
2024-03-09T17:05:04.663Z,8.73
2024-03-09T17:06:38.725Z,8.66
2024-03-09T17:08:12.593Z,8.61
2024-03-09T17:09:44.884Z,8.60
2024-03-09T17:11:19.261Z,8.54
2024-03-09T17:12:51.470Z,8.52
2024-03-09T17:14:24.101Z,8.49
2024-03-09T17:16:00.124Z,8.46
2024-03-09T17:17:32.269Z,8.42
2024-03-09T17:19:04.434Z,8.39
2024-03-09T17:20:36.511Z,8.26
2024-03-09T17:22:17.985Z,8.20
2024-03-09T17:23:52.046Z,8.10
2024-03-09T17:25:24.248Z,8.02
2024-03-09T17:27:00.181Z,7.92
2024-03-09T17:28:35.853Z,7.81
2024-03-09T17:30:08.515Z,7.74
2024-03-09T17:31:50.491Z,7.64
2024-03-09T17:33:23.570Z,7.60
2024-03-09T17:34:55.728Z,7.55
2024-03-09T17:36:28.155Z,7.50
2024-03-09T17:38:00.483Z,7.43
2024-03-09T17:39:34.432Z,7.42
2024-03-09T17:41:06.444Z,7.36
2024-03-09T17:42:38.662Z,7.34
2024-03-09T17:44:11.825Z,7.32
2024-03-09T17:45:44.023Z,7.28
2024-03-09T17:47:16.356Z,7.28
2024-03-09T17:48:49.706Z,7.27
2024-03-09T17:50:26.471Z,7.26
2024-03-09T17:51:59.950Z,7.22
2024-03-09T17:53:33.342Z,7.19
2024-03-09T17:55:07.674Z,7.12
2024-03-09T17:56:40.278Z,7.07
2024-03-09T17:58:13.664Z,7.04
2024-03-09T17:59:45.793Z,7.00
2024-03-09T18:01:21.125Z,6.99
2024-03-09T18:02:53.567Z,6.96
2024-03-09T18:04:25.713Z,6.94
2024-03-09T18:05:58.205Z,6.93
2024-03-09T18:07:30.225Z,6.94
2024-03-09T18:09:02.294Z,6.91
2024-03-09T18:10:34.367Z,6.86
2024-03-09T18:12:06.569Z,6.83
2024-03-09T18:13:38.785Z,6.81
2024-03-09T18:15:12.096Z,6.82
2024-03-09T18:16:44.251Z,6.82
2024-03-09T18:18:18.294Z,6.83
2024-03-09T18:19:50.760Z,6.83
2024-03-09T18:21:26.500Z,6.82
2024-03-09T18:23:01.471Z,6.82
2024-03-09T18:24:34.601Z,6.80
2024-03-09T18:26:10.222Z,6.77
2024-03-09T18:27:42.602Z,6.66
2024-03-09T18:29:15.208Z,6.61
2024-03-09T18:30:47.606Z,6.57
2024-03-09T18:32:19.848Z,6.56
2024-03-09T18:33:54.159Z,6.49
2024-03-09T18:35:26.412Z,6.41
2024-03-09T18:36:58.749Z,6.36
2024-03-09T18:38:32.940Z,6.33
2024-03-09T18:40:06.892Z,6.30
2024-03-09T18:41:39.206Z,6.30
2024-03-09T18:43:11.441Z,6.30
2024-03-09T18:44:43.479Z,6.28
2024-03-09T18:46:21.143Z,6.22
2024-03-09T18:47:55.140Z,6.17
2024-03-09T18:49:28.679Z,6.11
2024-03-09T18:51:02.215Z,6.10
2024-03-09T18:52:34.196Z,6.07
2024-03-09T18:54:06.528Z,6.05
2024-03-09T18:55:39.329Z,6.01
2024-03-09T18:57:11.832Z,5.96
2024-03-09T18:58:44.424Z,5.90
2024-03-09T19:00:19.692Z,5.89
2024-03-09T19:01:52.957Z,5.86
2024-03-09T19:03:25.117Z,5.83
2024-03-09T19:04:57.211Z,5.80
2024-03-09T19:06:29.645Z,5.76
2024-03-09T19:08:04.484Z,5.69
2024-03-09T19:09:40.164Z,5.61
2024-03-09T19:11:12.708Z,5.54
2024-03-09T19:12:46.125Z,5.50
2024-03-09T19:14:18.395Z,5.46
2024-03-09T19:15:50.584Z,5.44
2024-03-09T19:17:22.640Z,5.44
2024-03-09T19:18:54.877Z,5.42
2024-03-09T19:20:28.329Z,5.37
2024-03-09T19:22:00.433Z,5.27
2024-03-09T19:23:32.535Z,5.19
2024-03-09T19:26:43.715Z,5.15
2024-03-09T19:28:18.326Z,5.14
2024-03-09T19:29:50.512Z,5.12
2024-03-09T19:31:24.686Z,5.09
2024-03-09T19:32:58.637Z,5.05
2024-03-09T19:34:31.616Z,4.98
2024-03-09T19:36:04.357Z,4.90
2024-03-09T19:37:37.235Z,4.80
2024-03-09T19:39:12.450Z,4.73
2024-03-09T19:40:44.563Z,4.69
2024-03-09T19:42:16.723Z,4.66
2024-03-09T19:43:49.549Z,4.65
2024-03-09T19:45:23.819Z,4.67
2024-03-09T19:46:56.230Z,4.66
2024-03-09T19:48:28.340Z,4.68
2024-03-09T19:50:04.564Z,4.67
2024-03-09T19:51:37.651Z,4.67
2024-03-09T19:53:12.013Z,4.70
2024-03-09T19:54:44.741Z,4.66
2024-03-09T19:56:17.561Z,4.59
2024-03-09T19:57:49.848Z,4.50
2024-03-09T20:00:56.039Z,4.38
2024-03-09T20:02:31.071Z,4.30
2024-03-09T20:04:03.696Z,4.25
2024-03-09T20:05:36.547Z,4.24
2024-03-09T20:07:11.536Z,4.24
2024-03-09T20:08:43.610Z,4.24
2024-03-09T20:10:18.706Z,4.25
2024-03-09T20:11:50.826Z,4.28
2024-03-09T20:13:23.120Z,4.25
2024-03-09T20:14:55.365Z,4.25
2024-03-09T20:16:30.224Z,4.24
2024-03-09T20:18:02.389Z,4.23
2024-03-09T20:19:35.903Z,4.25
2024-03-09T20:21:08.106Z,4.23
2024-03-09T20:22:40.771Z,4.15
2024-03-09T20:24:14.054Z,4.06
2024-03-09T20:25:46.393Z,3.98
2024-03-09T20:27:18.507Z,3.91
2024-03-09T20:28:50.727Z,3.83
2024-03-09T20:30:22.873Z,3.79
2024-03-09T20:31:55.161Z,3.80
2024-03-09T20:33:27.415Z,3.80
2024-03-09T20:34:59.717Z,3.81
2024-03-09T20:36:32.627Z,3.83
2024-03-09T20:38:09.342Z,3.85
2024-03-09T20:39:42.165Z,3.87
2024-03-09T20:41:14.218Z,3.84
2024-03-09T20:42:46.658Z,3.85
2024-03-09T20:44:20.657Z,3.83
2024-03-09T20:45:53.468Z,3.80
2024-03-09T20:47:25.646Z,3.75
2024-03-09T20:49:00.697Z,3.71
2024-03-09T20:50:36.646Z,3.66
2024-03-09T20:52:08.898Z,3.69
2024-03-09T20:54:03.740Z,3.67
2024-03-09T20:55:35.872Z,3.65
2024-03-09T20:57:09.779Z,3.58
2024-03-09T20:58:43.340Z,3.53
2024-03-09T21:00:25.767Z,3.50
2024-03-09T21:02:00.859Z,3.43
2024-03-09T21:03:33.117Z,3.36
2024-03-09T21:05:05.617Z,3.35
2024-03-09T21:06:38.379Z,3.34
2024-03-09T21:08:10.430Z,3.36
2024-03-09T21:09:42.547Z,3.38
2024-03-09T21:11:14.684Z,3.39
2024-03-09T21:12:50.935Z,3.38
2024-03-09T21:17:42.944Z,3.33
2024-03-09T21:19:15.285Z,3.29
2024-03-09T21:20:47.646Z,3.21
2024-03-09T21:22:19.720Z,3.16
2024-03-09T21:23:52.124Z,3.11
2024-03-09T21:25:24.170Z,3.07
2024-03-09T21:26:56.654Z,3.04
2024-03-09T21:28:31.763Z,3.01
2024-03-09T21:30:04.919Z,3.01
2024-03-09T21:31:37.337Z,3.02
2024-03-09T21:33:09.352Z,2.98
2024-03-09T21:34:41.649Z,2.91
2024-03-09T21:36:13.736Z,2.87
2024-03-09T21:37:47.763Z,2.86
2024-03-09T21:39:20.339Z,2.89
2024-03-09T21:40:53.027Z,2.91
2024-03-09T21:42:29.415Z,2.93
2024-03-09T21:44:07.099Z,2.89
2024-03-09T21:45:40.406Z,2.86
2024-03-09T21:47:14.414Z,2.87
2024-03-09T21:48:46.639Z,2.86
2024-03-09T21:50:24.145Z,2.79
2024-03-09T21:51:57.265Z,2.79
2024-03-09T21:53:30.412Z,2.78
2024-03-09T21:55:02.554Z,2.79
2024-03-09T21:56:34.996Z,2.80
2024-03-09T21:58:11.556Z,2.79
2024-03-09T21:59:45.447Z,2.82
2024-03-09T22:01:17.624Z,2.83
2024-03-09T22:02:57.552Z,2.80
2024-03-09T22:04:29.993Z,2.76
2024-03-09T22:06:02.561Z,2.69
2024-03-09T22:07:34.714Z,2.67
2024-03-09T22:09:07.287Z,2.65
2024-03-09T22:10:39.820Z,2.64